createdAt,value
2022-10-28T00:00:10.204Z,2.78
2022-10-28T00:02:37.686Z,2.82
2022-10-28T00:05:04.526Z,2.84
2022-10-28T00:07:31.097Z,2.74
2022-10-28T00:09:58.564Z,2.73
2022-10-28T00:12:25.127Z,2.75
2022-10-28T00:14:52.099Z,2.82
2022-10-28T00:17:21.846Z,2.85
2022-10-28T00:19:48.665Z,2.85
2022-10-28T00:22:15.258Z,2.82
2022-10-28T00:24:41.885Z,2.83
2022-10-28T00:27:08.473Z,2.87
2022-10-28T00:29:35.079Z,2.89
2022-10-28T00:32:01.709Z,2.72
2022-10-28T00:34:28.326Z,2.82
2022-10-28T00:36:54.926Z,2.79
2022-10-28T00:39:24.372Z,2.82
2022-10-28T00:41:57.836Z,2.89
2022-10-28T00:44:40.638Z,2.93
2022-10-28T00:47:16.963Z,2.93
2022-10-28T00:49:46.734Z,2.92
2022-10-28T00:52:21.144Z,2.80
2022-10-28T00:54:51.927Z,2.93
2022-10-28T00:57:23.065Z,2.92
2022-10-28T00:59:53.036Z,2.93
2022-10-28T01:02:20.377Z,2.93
2022-10-28T01:04:47.875Z,2.91
2022-10-28T01:07:16.730Z,2.93
2022-10-28T01:09:44.306Z,2.99
2022-10-28T01:12:44.458Z,3.04
2022-10-28T01:15:23.020Z,3.01
2022-10-28T01:17:59.125Z,2.98
2022-10-28T01:20:45.248Z,2.94
2022-10-28T01:23:32.709Z,3.08
2022-10-28T01:26:37.124Z,3.07
2022-10-28T01:29:35.701Z,3.07
2022-10-28T01:32:09.693Z,3.02
2022-10-28T01:34:49.644Z,2.91
2022-10-28T01:37:49.401Z,2.97
2022-10-28T01:40:49.734Z,3.07
2022-10-28T01:43:21.716Z,3.01
2022-10-28T01:46:17.560Z,3.10
2022-10-28T01:48:51.128Z,3.11
2022-10-28T01:51:26.601Z,3.12
2022-10-28T01:53:56.905Z,3.15
2022-10-28T01:56:28.373Z,3.18
2022-10-28T01:58:59.104Z,3.15
2022-10-28T02:01:27.498Z,3.19
2022-10-28T02:03:55.417Z,3.03
2022-10-28T02:06:25.465Z,3.17
2022-10-28T02:09:04.200Z,3.06
2022-10-28T02:11:42.592Z,3.17
2022-10-28T02:14:11.760Z,3.17
2022-10-28T02:16:43.663Z,3.11
2022-10-28T02:19:20.101Z,3.13
2022-10-28T02:21:46.625Z,3.10
2022-10-28T02:24:25.284Z,3.07
2022-10-28T02:27:00.734Z,3.06
2022-10-28T02:29:36.169Z,3.01
2022-10-28T02:32:08.897Z,3.00
2022-10-28T02:34:45.204Z,2.97
2022-10-28T02:37:18.631Z,3.04
2022-10-28T02:39:52.512Z,2.95
2022-10-28T02:42:24.285Z,2.99
2022-10-28T02:45:01.820Z,3.00
2022-10-28T02:47:33.790Z,2.98
2022-10-28T15:39:17.001Z,3.42
2022-10-28T15:41:52.495Z,3.53
2022-10-28T15:44:39.034Z,3.54
2022-10-28T15:47:26.045Z,3.57
2022-10-28T15:50:06.293Z,3.67
2022-10-28T15:52:50.226Z,3.74
2022-10-28T15:55:21.756Z,3.80
2022-10-28T15:57:59.553Z,3.81
2022-10-28T16:00:31.453Z,3.80
2022-10-28T16:05:59.449Z,3.75
2022-10-28T16:08:29.951Z,3.76
2022-10-28T16:11:06.589Z,3.76
2022-10-28T16:13:47.232Z,3.62
2022-10-28T16:16:22.756Z,3.80
2022-10-28T16:18:55.212Z,3.64
2022-10-28T16:21:27.293Z,3.75
2022-10-28T16:23:59.122Z,3.75
2022-10-28T16:26:26.760Z,3.78
2022-10-28T16:28:54.318Z,3.83
2022-10-28T16:31:25.025Z,3.81
2022-10-28T16:33:51.740Z,3.81
2022-10-28T16:36:18.538Z,3.48
2022-10-28T16:38:46.710Z,3.77
2022-10-28T16:41:18.822Z,3.70
2022-10-28T16:43:46.073Z,3.76
2022-10-28T16:46:13.839Z,3.69
2022-10-28T16:48:41.247Z,3.69
2022-10-28T16:51:16.360Z,3.70
2022-10-28T16:53:47.170Z,3.71
2022-10-28T16:56:17.054Z,3.69
2022-10-28T16:58:46.647Z,3.71
2022-10-28T17:01:19.769Z,3.70
2022-10-28T17:03:46.532Z,3.73
2022-10-28T17:06:13.174Z,3.76
2022-10-28T17:09:01.838Z,3.75
2022-10-28T17:11:27.197Z,3.78
2022-10-28T17:13:53.786Z,3.79
2022-10-28T17:16:20.448Z,3.75
2022-10-28T17:18:57.094Z,3.68
2022-10-28T17:21:23.767Z,3.79
2022-10-28T17:23:50.649Z,3.77
2022-10-28T17:26:21.082Z,3.78
2022-10-28T17:28:52.377Z,3.60
2022-10-28T17:31:23.928Z,3.74
2022-10-28T17:33:55.442Z,3.74
2022-10-28T17:36:23.245Z,3.72
2022-10-28T17:38:50.876Z,3.70
2022-10-28T17:41:18.258Z,3.72
2022-10-28T17:43:44.838Z,3.67
2022-10-28T17:46:11.389Z,3.72
2022-10-28T17:48:39.803Z,3.68
2022-10-28T17:51:08.655Z,3.69
2022-10-28T17:53:35.349Z,3.67
2022-10-28T17:56:05.623Z,3.69
2022-10-28T17:58:33.625Z,3.71
2022-10-28T18:01:07.067Z,3.73
2022-10-28T18:03:38.253Z,3.71
2022-10-28T18:06:07.755Z,3.74
2022-10-28T18:08:37.425Z,3.71
2022-10-28T18:11:05.623Z,3.70
2022-10-28T18:13:35.345Z,3.69
2022-10-28T18:16:13.427Z,3.69
2022-10-28T18:18:42.560Z,3.68
2022-10-28T18:21:10.802Z,3.62
2022-10-28T18:23:37.735Z,3.75
2022-10-28T18:26:15.345Z,3.67
2022-10-28T18:28:43.392Z,3.67
2022-10-28T18:31:11.671Z,3.66
2022-10-28T18:33:39.827Z,3.58
2022-10-28T18:36:10.714Z,3.69
2022-10-28T18:38:37.860Z,3.64
2022-10-28T18:41:04.618Z,3.70
2022-10-28T18:43:31.239Z,3.61
2022-10-28T18:46:02.353Z,3.69
2022-10-28T18:48:30.737Z,3.68
2022-10-28T18:51:06.795Z,3.62
2022-10-28T18:53:38.346Z,3.71
2022-10-28T18:56:12.565Z,3.69
2022-10-28T18:58:40.027Z,3.63
2022-10-28T19:01:21.376Z,3.63
2022-10-28T19:03:52.913Z,3.66
2022-10-28T19:06:20.469Z,3.51
2022-10-28T19:08:52.290Z,3.61
2022-10-28T19:11:22.566Z,3.67
2022-10-28T19:13:49.426Z,3.64
2022-10-28T19:16:16.043Z,3.63
2022-10-28T19:18:42.705Z,3.53
2022-10-28T19:21:13.754Z,3.64
2022-10-28T19:23:41.116Z,3.55
2022-10-28T19:26:08.714Z,3.61
2022-10-28T19:28:46.618Z,3.72
2022-10-28T19:31:19.641Z,3.72
2022-10-28T19:33:46.712Z,3.73
2022-10-28T19:36:18.633Z,3.69
2022-10-28T19:38:49.817Z,3.71
2022-10-28T19:41:19.926Z,3.74
2022-10-28T19:43:47.158Z,3.73
2022-10-28T19:46:16.500Z,3.57
2022-10-28T19:48:45.758Z,3.45
2022-10-28T19:51:15.393Z,3.29
2022-10-28T19:53:47.662Z,3.25
2022-10-28T19:58:54.222Z,3.30
2022-10-28T20:01:22.302Z,3.28
2022-10-28T20:03:53.225Z,3.32
2022-10-28T20:06:22.873Z,3.35
2022-10-28T20:08:49.961Z,3.38
2022-10-28T20:11:21.377Z,3.32
2022-10-28T20:14:05.017Z,3.41
2022-10-28T20:16:32.956Z,3.41
2022-10-28T20:18:59.891Z,3.41
2022-10-28T20:21:28.707Z,3.43
2022-10-28T20:23:56.999Z,3.43
2022-10-28T20:26:26.006Z,3.43
2022-10-28T20:28:53.712Z,3.40
2022-10-28T20:31:22.757Z,3.52
2022-10-28T20:33:54.619Z,3.50
2022-10-28T20:36:28.285Z,3.53
2022-10-28T20:39:03.814Z,3.46
2022-10-28T20:41:33.530Z,3.51
2022-10-28T20:44:00.653Z,3.43
2022-10-28T20:46:27.747Z,3.48
2022-10-28T20:48:54.907Z,3.46
2022-10-28T20:51:22.075Z,3.52
2022-10-28T20:53:48.814Z,3.52
2022-10-28T20:56:17.969Z,3.46
2022-10-28T20:58:44.891Z,3.48
2022-10-28T21:01:15.907Z,3.45
2022-10-28T21:03:44.026Z,3.46
2022-10-28T21:08:45.183Z,3.47
2022-10-28T21:11:14.086Z,3.47
2022-10-28T21:13:41.428Z,3.47
2022-10-28T21:16:11.942Z,3.48
2022-10-28T21:18:39.367Z,3.47
2022-10-28T21:21:06.924Z,3.18
2022-10-28T21:23:33.612Z,3.48
2022-10-28T21:26:02.381Z,3.45
2022-10-28T21:28:30.364Z,3.44
2022-10-28T21:31:17.190Z,3.47
2022-10-28T21:33:44.508Z,3.37
2022-10-28T21:36:13.924Z,3.51
2022-10-28T21:38:41.045Z,3.52
2022-10-28T21:41:17.069Z,3.53
2022-10-28T21:43:48.595Z,3.57
2022-10-28T21:46:16.286Z,3.57
2022-10-28T21:48:43.394Z,3.53
2022-10-28T21:51:14.451Z,3.61
2022-10-28T21:53:43.681Z,3.53
2022-10-28T21:56:21.630Z,3.57
2022-10-28T21:58:50.218Z,3.54
2022-10-28T22:01:23.443Z,3.55
2022-10-28T22:03:51.872Z,3.53
2022-10-28T22:06:18.519Z,3.52
2022-10-28T22:08:45.893Z,3.52
2022-10-28T22:11:18.133Z,3.54
2022-10-28T22:13:44.762Z,3.54
2022-10-28T22:16:14.036Z,3.57
2022-10-28T22:18:41.266Z,3.33
2022-10-28T22:21:20.929Z,3.55
2022-10-28T22:23:48.264Z,3.21
2022-10-28T22:26:18.836Z,3.51
2022-10-28T22:28:45.922Z,3.56
2022-10-28T22:31:16.131Z,3.54
2022-10-28T22:33:42.850Z,3.46
2022-10-28T22:36:20.770Z,3.45
2022-10-28T22:38:48.705Z,3.38
2022-10-28T22:41:26.059Z,3.30
2022-10-28T22:43:57.726Z,3.38
2022-10-28T22:46:26.953Z,3.29
2022-10-28T22:48:54.190Z,3.18
2022-10-28T22:51:21.017Z,3.21
2022-10-28T22:53:49.605Z,3.18
2022-10-28T22:56:21.798Z,3.17
2022-10-28T22:58:53.188Z,3.20
2022-10-28T23:01:20.255Z,3.15
2022-10-28T23:03:48.920Z,3.06
2022-10-28T23:06:17.513Z,3.19
2022-10-28T23:08:47.417Z,3.12
2022-10-28T23:11:16.258Z,3.17
2022-10-28T23:13:43.417Z,3.11
2022-10-28T23:16:12.516Z,3.09
2022-10-28T23:18:39.824Z,3.13
2022-10-28T23:21:12.758Z,3.14
2022-10-28T23:23:40.258Z,3.20
2022-10-28T23:26:07.815Z,3.17
2022-10-28T23:28:34.546Z,3.16
2022-10-28T23:31:03.125Z,3.20
2022-10-28T23:33:31.105Z,3.17
2022-10-28T23:35:59.051Z,3.11
2022-10-28T23:38:27.141Z,3.08
2022-10-28T23:41:07.454Z,3.02
2022-10-28T23:43:34.429Z,3.11
2022-10-28T23:46:01.567Z,3.08
2022-10-28T23:48:30.054Z,3.05
2022-10-28T23:50:57.208Z,3.07
2022-10-28T23:53:24.402Z,3.14
2022-10-28T23:55:52.434Z,3.06
2022-10-28T23:58:20.837Z,3.17
